PWSweather.com
Personal Weather Stations
Station Observations
GEELONGWX1
Bell Post Hill, GeelongAU

Bell Post HillGeelongAU

Lat: -38.101, Lon: 144.326

Elevation: 204

Station Type: Davis Vantage Pro2

http://www.geelongweather.com

Latest ConditionsUpdated 5:40:02 PM GMT+10:10 Friday, Jul 29, 2016
Currently Today's Max Today's Min Today's Average
Temperature 54.2°F12.3°C 61.3°F16.3°C 51.5°F10.8°C 54.5°F12.5°C
Dew Point 48.5°F9.2°C 52.4°F11.3°C 44.7°F7.1°C 48.2°F9.0°C
Winds 2.3 mph SW3.7 kmh SW 12.7 mph WSW20.4 kmh WSW - 6.7 mph 10.8 kmh
Wind Gusts 3.5 mph5.6 kmh 23.0 mph37.0 kmh - -
Humidity 81% 87% 69% 80%
Pressure 30.20 in1022.7 mb 30.23 in1023.7 mb 30.15 in1021.0 mb -
Precipitation - 0.03 in0.8 mm - -
Hour Temp Dew Point Humidity Winds Wind Gusts Pressure Precip Precip Rate Daily Precip Total
05:40 PM 54.2°F12.3°C 48.5°F9.2°C 81% 2.3 mph SW3.7 kmh SW 3.5 mph5.6 kmh 30.20 in1022.7 mb - 0.00 in0.0 mm 0.03 in0.8 mm
05:30 PM 54.6°F12.6°C 48.9°F9.4°C 81% 3.5 mph S5.6 kmh S 5.8 mph9.3 kmh 30.20 in1022.7 mb - 0.00 in0.0 mm 0.03 in0.8 mm
05:20 PM 54.9°F12.7°C 48.9°F9.4°C 80% 2.3 mph SSW3.7 kmh SSW 6.9 mph11.1 kmh 30.19 in1022.4 mb - 0.00 in0.0 mm 0.03 in0.8 mm
05:10 PM 55.4°F13.0°C 49.3°F9.6°C 80% 3.5 mph SW5.6 kmh SW 3.5 mph5.6 kmh 30.19 in1022.4 mb - 0.00 in0.0 mm 0.03 in0.8 mm
05:00 PM 55.8°F13.2°C 49.4°F9.7°C 79% 3.5 mph SSW5.6 kmh SSW 6.9 mph11.1 kmh 30.18 in1022.0 mb - 0.00 in0.0 mm 0.03 in0.8 mm
04:50 PM 56.2°F13.4°C 49.8°F9.9°C 79% 2.3 mph SW3.7 kmh SW 3.5 mph5.6 kmh 30.18 in1022.0 mb - 0.00 in0.0 mm 0.03 in0.8 mm
04:40 PM 56.6°F13.7°C 50.1°F10.1°C 79% 5.8 mph SSW9.3 kmh SSW 8.1 mph13.0 kmh 30.18 in1022.0 mb - 0.00 in0.0 mm 0.03 in0.8 mm
04:30 PM 56.9°F13.8°C 50.8°F10.4°C 80% 10.4 mph S16.7 kmh S 12.7 mph20.4 kmh 30.18 in1022.0 mb - 0.00 in0.0 mm 0.03 in0.8 mm
04:20 PM 57.1°F13.9°C 51.7°F10.9°C 82% 4.6 mph SSW7.4 kmh SSW 5.8 mph9.3 kmh 30.17 in1021.7 mb - 0.00 in0.0 mm 0.03 in0.8 mm
04:10 PM 57.2°F14.0°C 51.8°F11.0°C 82% 5.8 mph S9.3 kmh S 8.1 mph13.0 kmh 30.17 in1021.7 mb - 0.00 in0.0 mm 0.03 in0.8 mm
04:00 PM 57.2°F14.0°C 51.4°F10.8°C 81% 4.6 mph S7.4 kmh S 9.2 mph14.8 kmh 30.17 in1021.7 mb - 0.00 in0.0 mm 0.03 in0.8 mm
03:50 PM 57.1°F13.9°C 51.6°F10.9°C 82% 4.6 mph SSW7.4 kmh SSW 8.1 mph13.0 kmh 30.17 in1021.7 mb - 0.00 in0.0 mm 0.03 in0.8 mm
03:40 PM 56.7°F13.7°C 51.2°F10.7°C 82% 4.6 mph SW7.4 kmh SW 8.1 mph13.0 kmh 30.17 in1021.7 mb - 0.00 in0.0 mm 0.03 in0.8 mm
03:30 PM 57.1°F13.9°C 52.0°F11.1°C 83% 5.8 mph SW9.3 kmh SW 6.9 mph11.1 kmh 30.17 in1021.7 mb - 0.00 in0.0 mm 0.03 in0.8 mm
03:20 PM 57.2°F14.0°C 52.4°F11.3°C 84% 3.5 mph SSW5.6 kmh SSW 9.2 mph14.8 kmh 30.16 in1021.3 mb - 0.00 in0.0 mm 0.03 in0.8 mm
03:10 PM 56.4°F13.6°C 51.9°F11.1°C 85% 5.8 mph SW9.3 kmh SW 5.8 mph9.3 kmh 30.16 in1021.3 mb - 0.00 in0.0 mm 0.03 in0.8 mm
03:00 PM 56.5°F13.6°C 51.4°F10.8°C 83% 5.8 mph SSW9.3 kmh SSW 11.5 mph18.5 kmh 30.16 in1021.3 mb - 0.00 in0.0 mm 0.03 in0.8 mm
02:50 PM 56.6°F13.7°C 52.2°F11.2°C 85% 6.9 mph S11.1 kmh S 12.7 mph20.4 kmh 30.16 in1021.3 mb - 0.00 in0.0 mm 0.03 in0.8 mm
02:40 PM 55.4°F13.0°C 51.6°F10.9°C 87% 5.8 mph S9.3 kmh S 10.4 mph16.7 kmh 30.16 in1021.3 mb - 0.00 in0.0 mm 0.03 in0.8 mm
02:30 PM 57.4°F14.1°C 51.0°F10.6°C 79% 8.1 mph S13.0 kmh S 11.5 mph18.5 kmh 30.16 in1021.3 mb - 0.02 in0.5 mm 0.03 in0.8 mm
02:20 PM 59.0°F15.0°C 51.8°F11.0°C 77% 6.9 mph S11.1 kmh S 13.8 mph22.2 kmh 30.16 in1021.3 mb - 0.01 in0.3 mm 0.01 in0.3 mm
02:10 PM 59.5°F15.3°C 51.2°F10.7°C 74% 11.5 mph S18.5 kmh S 13.8 mph22.2 kmh 30.15 in1021.0 mb - 0.00 in0.0 mm 0.00 in0.0 mm
02:00 PM 60.6°F15.9°C 51.1°F10.6°C 71% 9.2 mph SW14.8 kmh SW 13.8 mph22.2 kmh 30.15 in1021.0 mb - 0.00 in0.0 mm 0.00 in0.0 mm
01:50 PM 60.1°F15.6°C 50.6°F10.3°C 71% 10.4 mph SW16.7 kmh SW 15.0 mph24.1 kmh 30.15 in1021.0 mb - 0.00 in0.0 mm 0.00 in0.0 mm
01:40 PM 61.3°F16.3°C 51.1°F10.6°C 69% 8.1 mph SW13.0 kmh SW 11.5 mph18.5 kmh 30.15 in1021.0 mb - 0.00 in0.0 mm 0.00 in0.0 mm
01:30 PM 60.9°F16.1°C 51.4°F10.8°C 71% 10.4 mph SW16.7 kmh SW 11.5 mph18.5 kmh 30.15 in1021.0 mb - 0.00 in0.0 mm 0.00 in0.0 mm
01:20 PM 60.7°F15.9°C 52.4°F11.3°C 74% 8.1 mph SW13.0 kmh SW 15.0 mph24.1 kmh 30.16 in1021.3 mb - 0.00 in0.0 mm 0.00 in0.0 mm
01:10 PM 59.7°F15.4°C 52.2°F11.2°C 76% 10.4 mph SW16.7 kmh SW 15.0 mph24.1 kmh 30.16 in1021.3 mb - 0.00 in0.0 mm 0.00 in0.0 mm
01:00 PM 59.0°F15.0°C 51.8°F11.0°C 77% 8.1 mph SW13.0 kmh SW 17.3 mph27.8 kmh 30.17 in1021.7 mb - 0.00 in0.0 mm 0.00 in0.0 mm
12:50 PM 58.9°F14.9°C 51.4°F10.8°C 76% 10.4 mph SW16.7 kmh SW 19.6 mph31.5 kmh 30.17 in1021.7 mb - 0.00 in0.0 mm 0.00 in0.0 mm
12:40 PM 57.8°F14.3°C 50.6°F10.3°C 77% 10.4 mph SW16.7 kmh SW 15.0 mph24.1 kmh 30.18 in1022.0 mb - 0.00 in0.0 mm 0.00 in0.0 mm
12:30 PM 58.6°F14.8°C 51.1°F10.6°C 76% 10.4 mph SW16.7 kmh SW 13.8 mph22.2 kmh 30.18 in1022.0 mb - 0.00 in0.0 mm 0.00 in0.0 mm
12:20 PM 58.0°F14.4°C 51.2°F10.7°C 78% 9.2 mph SW14.8 kmh SW 18.4 mph29.6 kmh 30.19 in1022.4 mb - 0.00 in0.0 mm 0.00 in0.0 mm
12:10 PM 57.5°F14.2°C 50.7°F10.4°C 78% 9.2 mph SW14.8 kmh SW 13.8 mph22.2 kmh 30.18 in1022.0 mb - 0.00 in0.0 mm 0.00 in0.0 mm
12:00 PM 58.0°F14.4°C 50.8°F10.4°C 77% 11.5 mph SW18.5 kmh SW 19.6 mph31.5 kmh 30.18 in1022.0 mb - 0.00 in0.0 mm 0.00 in0.0 mm
11:50 AM 58.6°F14.8°C 51.4°F10.8°C 77% 10.4 mph SW16.7 kmh SW 13.8 mph22.2 kmh 30.19 in1022.4 mb - 0.00 in0.0 mm 0.00 in0.0 mm
11:40 AM 58.3°F14.6°C 51.8°F11.0°C 79% 10.4 mph SW16.7 kmh SW 11.5 mph18.5 kmh 30.19 in1022.4 mb - 0.00 in0.0 mm 0.00 in0.0 mm
11:30 AM 56.2°F13.4°C 51.4°F10.8°C 84% 11.5 mph SW18.5 kmh SW 23.0 mph37.0 kmh 30.19 in1022.4 mb - 0.00 in0.0 mm 0.00 in0.0 mm
11:20 AM 55.3°F12.9°C 51.5°F10.8°C 87% 10.4 mph SW16.7 kmh SW 13.8 mph22.2 kmh 30.20 in1022.7 mb - 0.00 in0.0 mm 0.00 in0.0 mm
11:10 AM 54.8°F12.7°C 50.7°F10.4°C 86% 11.5 mph SW18.5 kmh SW 18.4 mph29.6 kmh 30.20 in1022.7 mb - 0.00 in0.0 mm 0.00 in0.0 mm
11:00 AM 55.0°F12.8°C 50.6°F10.3°C 85% 12.7 mph WSW20.4 kmh WSW 19.6 mph31.5 kmh 30.20 in1022.7 mb - 0.00 in0.0 mm 0.00 in0.0 mm
10:50 AM 54.8°F12.7°C 50.4°F10.2°C 85% 9.2 mph SW14.8 kmh SW 12.7 mph20.4 kmh 30.20 in1022.7 mb - 0.00 in0.0 mm 0.00 in0.0 mm
10:40 AM 54.7°F12.6°C 49.9°F9.9°C 84% 8.1 mph SSW13.0 kmh SSW 12.7 mph20.4 kmh 30.20 in1022.7 mb - 0.00 in0.0 mm 0.00 in0.0 mm
10:30 AM 54.4°F12.4°C 49.7°F9.8°C 84% 8.1 mph SW13.0 kmh SW 10.4 mph16.7 kmh 30.20 in1022.7 mb - 0.00 in0.0 mm 0.00 in0.0 mm
10:20 AM 54.3°F12.4°C 49.5°F9.7°C 84% 6.9 mph WSW11.1 kmh WSW 12.7 mph20.4 kmh 30.20 in1022.7 mb - 0.00 in0.0 mm 0.00 in0.0 mm
10:10 AM 54.2°F12.3°C 49.5°F9.7°C 84% 5.8 mph WSW9.3 kmh WSW 9.2 mph14.8 kmh 30.20 in1022.7 mb - 0.00 in0.0 mm 0.00 in0.0 mm
10:00 AM 54.1°F12.3°C 49.4°F9.7°C 84% 8.1 mph SW13.0 kmh SW 19.6 mph31.5 kmh 30.20 in1022.7 mb - 0.00 in0.0 mm 0.00 in0.0 mm
09:50 AM 53.9°F12.2°C 49.2°F9.6°C 84% 8.1 mph SW13.0 kmh SW 11.5 mph18.5 kmh 30.20 in1022.7 mb - 0.00 in0.0 mm 0.00 in0.0 mm
09:40 AM 53.6°F12.0°C 48.8°F9.3°C 84% 11.5 mph SW18.5 kmh SW 15.0 mph24.1 kmh 30.20 in1022.7 mb - 0.00 in0.0 mm 0.00 in0.0 mm
09:30 AM 53.2°F11.8°C 48.9°F9.4°C 85% 9.2 mph SW14.8 kmh SW 12.7 mph20.4 kmh 30.20 in1022.7 mb - 0.00 in0.0 mm 0.00 in0.0 mm
09:20 AM 53.0°F11.7°C 48.6°F9.2°C 85% 6.9 mph SW11.1 kmh SW 11.5 mph18.5 kmh 30.20 in1022.7 mb - 0.00 in0.0 mm 0.00 in0.0 mm
09:10 AM 52.9°F11.6°C 48.5°F9.2°C 85% 8.1 mph SW13.0 kmh SW 15.0 mph24.1 kmh 30.20 in1022.7 mb - 0.00 in0.0 mm 0.00 in0.0 mm
09:00 AM 53.0°F11.7°C 48.3°F9.1°C 84% 9.2 mph WSW14.8 kmh WSW 13.8 mph22.2 kmh 30.20 in1022.7 mb - 0.00 in0.0 mm 0.00 in0.0 mm
08:50 AM 53.2°F11.8°C 48.5°F9.2°C 84% 10.4 mph SW16.7 kmh SW 13.8 mph22.2 kmh 30.20 in1022.7 mb - 0.00 in0.0 mm 0.00 in0.0 mm
08:40 AM 53.2°F11.8°C 47.8°F8.8°C 82% 9.2 mph WSW14.8 kmh WSW 11.5 mph18.5 kmh 30.20 in1022.7 mb - 0.00 in0.0 mm 0.00 in0.0 mm
08:30 AM 53.2°F11.8°C 47.8°F8.8°C 82% 6.9 mph SW11.1 kmh SW 12.7 mph20.4 kmh 30.20 in1022.7 mb - 0.00 in0.0 mm 0.00 in0.0 mm
08:20 AM 53.0°F11.7°C 47.7°F8.7°C 82% 6.9 mph WSW11.1 kmh WSW 16.1 mph25.9 kmh 30.19 in1022.4 mb - 0.00 in0.0 mm 0.00 in0.0 mm
08:10 AM 52.8°F11.6°C 47.5°F8.6°C 82% 8.1 mph WSW13.0 kmh WSW 17.3 mph27.8 kmh 30.19 in1022.4 mb - 0.00 in0.0 mm 0.00 in0.0 mm
08:00 AM 52.5°F11.4°C 47.2°F8.4°C 82% 9.2 mph WSW14.8 kmh WSW 11.5 mph18.5 kmh 30.19 in1022.4 mb - 0.00 in0.0 mm 0.00 in0.0 mm
07:50 AM 52.3°F11.3°C 47.0°F8.3°C 82% 6.9 mph SW11.1 kmh SW 12.7 mph20.4 kmh 30.19 in1022.4 mb - 0.00 in0.0 mm 0.00 in0.0 mm
07:40 AM 52.1°F11.2°C 46.8°F8.2°C 82% 9.2 mph SW14.8 kmh SW 9.2 mph14.8 kmh 30.19 in1022.4 mb - 0.00 in0.0 mm 0.00 in0.0 mm
07:30 AM 51.9°F11.1°C 46.6°F8.1°C 82% 6.9 mph SW11.1 kmh SW 11.5 mph18.5 kmh 30.19 in1022.4 mb - 0.00 in0.0 mm 0.00 in0.0 mm
07:20 AM 51.8°F11.0°C 46.5°F8.1°C 82% 5.8 mph SW9.3 kmh SW 11.5 mph18.5 kmh 30.19 in1022.4 mb - 0.00 in0.0 mm 0.00 in0.0 mm
07:10 AM 51.8°F11.0°C 46.5°F8.1°C 82% 6.9 mph SW11.1 kmh SW 13.8 mph22.2 kmh 30.19 in1022.4 mb - 0.00 in0.0 mm 0.00 in0.0 mm
07:00 AM 51.8°F11.0°C 46.4°F8.0°C 82% 3.5 mph SW5.6 kmh SW 10.4 mph16.7 kmh 30.18 in1022.0 mb - 0.00 in0.0 mm 0.00 in0.0 mm
06:50 AM 51.7°F10.9°C 46.4°F8.0°C 82% 8.1 mph SW13.0 kmh SW 13.8 mph22.2 kmh 30.18 in1022.0 mb - 0.00 in0.0 mm 0.00 in0.0 mm
06:40 AM 51.6°F10.9°C 46.3°F7.9°C 82% 4.6 mph WSW7.4 kmh WSW 11.5 mph18.5 kmh 30.18 in1022.0 mb - 0.00 in0.0 mm 0.00 in0.0 mm
06:30 AM 51.5°F10.8°C 46.2°F7.9°C 82% 5.8 mph SW9.3 kmh SW 8.1 mph13.0 kmh 30.18 in1022.0 mb - 0.00 in0.0 mm 0.00 in0.0 mm
06:20 AM 51.5°F10.8°C 46.2°F7.9°C 82% 8.1 mph SW13.0 kmh SW 8.1 mph13.0 kmh 30.18 in1022.0 mb - 0.00 in0.0 mm 0.00 in0.0 mm
06:10 AM 51.5°F10.8°C 46.2°F7.9°C 82% 9.2 mph SW14.8 kmh SW 11.5 mph18.5 kmh 30.18 in1022.0 mb - 0.00 in0.0 mm 0.00 in0.0 mm
06:00 AM 51.5°F10.8°C 45.9°F7.7°C 81% 8.1 mph WSW13.0 kmh WSW 10.4 mph16.7 kmh 30.18 in1022.0 mb - 0.00 in0.0 mm 0.00 in0.0 mm
05:50 AM 51.6°F10.9°C 46.0°F7.8°C 81% 5.8 mph WSW9.3 kmh WSW 10.4 mph16.7 kmh 30.18 in1022.0 mb - 0.00 in0.0 mm 0.00 in0.0 mm
05:40 AM 51.7°F10.9°C 46.1°F7.8°C 81% 4.6 mph WSW7.4 kmh WSW 10.4 mph16.7 kmh 30.18 in1022.0 mb - 0.00 in0.0 mm 0.00 in0.0 mm
05:30 AM 51.8°F11.0°C 45.8°F7.7°C 80% 2.3 mph SW3.7 kmh SW 8.1 mph13.0 kmh 30.18 in1022.0 mb - 0.00 in0.0 mm 0.00 in0.0 mm
05:20 AM 51.8°F11.0°C 45.8°F7.7°C 80% 4.6 mph WSW7.4 kmh WSW 9.2 mph14.8 kmh 30.18 in1022.0 mb - 0.00 in0.0 mm 0.00 in0.0 mm
05:10 AM 51.9°F11.1°C 45.9°F7.7°C 80% 3.5 mph SW5.6 kmh SW 6.9 mph11.1 kmh 30.19 in1022.4 mb - 0.00 in0.0 mm 0.00 in0.0 mm
05:00 AM 52.0°F11.1°C 45.7°F7.6°C 79% 8.1 mph SW13.0 kmh SW 13.8 mph22.2 kmh 30.19 in1022.4 mb - 0.00 in0.0 mm 0.00 in0.0 mm
04:50 AM 52.1°F11.2°C 45.8°F7.7°C 79% 5.8 mph SW9.3 kmh SW 13.8 mph22.2 kmh 30.18 in1022.0 mb - 0.00 in0.0 mm 0.00 in0.0 mm
04:40 AM 52.1°F11.2°C 45.8°F7.7°C 79% 9.2 mph WSW14.8 kmh WSW 11.5 mph18.5 kmh 30.19 in1022.4 mb - 0.00 in0.0 mm 0.00 in0.0 mm
04:30 AM 52.1°F11.2°C 45.8°F7.7°C 79% 5.8 mph WSW9.3 kmh WSW 12.7 mph20.4 kmh 30.19 in1022.4 mb - 0.00 in0.0 mm 0.00 in0.0 mm
04:20 AM 52.2°F11.2°C 45.5°F7.5°C 78% 6.9 mph SW11.1 kmh SW 9.2 mph14.8 kmh 30.19 in1022.4 mb - 0.00 in0.0 mm 0.00 in0.0 mm
04:10 AM 52.3°F11.3°C 45.6°F7.6°C 78% 4.6 mph SW7.4 kmh SW 9.2 mph14.8 kmh 30.19 in1022.4 mb - 0.00 in0.0 mm 0.00 in0.0 mm
04:00 AM 52.3°F11.3°C 45.6°F7.6°C 78% 9.2 mph WSW14.8 kmh WSW 10.4 mph16.7 kmh 30.19 in1022.4 mb - 0.00 in0.0 mm 0.00 in0.0 mm
03:50 AM 52.3°F11.3°C 45.3°F7.4°C 77% 5.8 mph SW9.3 kmh SW 10.4 mph16.7 kmh 30.19 in1022.4 mb - 0.00 in0.0 mm 0.00 in0.0 mm
03:40 AM 52.4°F11.3°C 45.4°F7.4°C 77% 4.6 mph SW7.4 kmh SW 5.8 mph9.3 kmh 30.19 in1022.4 mb - 0.00 in0.0 mm 0.00 in0.0 mm
03:30 AM 52.3°F11.3°C 45.3°F7.4°C 77% 4.6 mph SW7.4 kmh SW 8.1 mph13.0 kmh 30.19 in1022.4 mb - 0.00 in0.0 mm 0.00 in0.0 mm
03:20 AM 52.2°F11.2°C 45.3°F7.4°C 77% 4.6 mph SW7.4 kmh SW 8.1 mph13.0 kmh 30.19 in1022.4 mb - 0.00 in0.0 mm 0.00 in0.0 mm
03:10 AM 52.2°F11.2°C 45.2°F7.3°C 77% 6.9 mph SW11.1 kmh SW 9.2 mph14.8 kmh 30.19 in1022.4 mb - 0.00 in0.0 mm 0.00 in0.0 mm
03:00 AM 52.2°F11.2°C 45.2°F7.3°C 77% 3.5 mph SW5.6 kmh SW 6.9 mph11.1 kmh 30.19 in1022.4 mb - 0.00 in0.0 mm 0.00 in0.0 mm
02:50 AM 52.2°F11.2°C 44.9°F7.2°C 76% 5.8 mph SW9.3 kmh SW 6.9 mph11.1 kmh 30.20 in1022.7 mb - 0.00 in0.0 mm 0.00 in0.0 mm
02:40 AM 52.3°F11.3°C 45.0°F7.2°C 76% 3.5 mph WSW5.6 kmh WSW 4.6 mph7.4 kmh 30.20 in1022.7 mb - 0.00 in0.0 mm 0.00 in0.0 mm
02:30 AM 52.4°F11.3°C 45.0°F7.2°C 76% 4.6 mph WSW7.4 kmh WSW 9.2 mph14.8 kmh 30.20 in1022.7 mb - 0.00 in0.0 mm 0.00 in0.0 mm
02:20 AM 52.4°F11.3°C 44.7°F7.1°C 75% 2.3 mph SW3.7 kmh SW 4.6 mph7.4 kmh 30.21 in1023.0 mb - 0.00 in0.0 mm 0.00 in0.0 mm
02:10 AM 52.5°F11.4°C 44.8°F7.1°C 75% 4.6 mph WSW7.4 kmh WSW 5.8 mph9.3 kmh 30.20 in1022.7 mb - 0.00 in0.0 mm 0.00 in0.0 mm
02:00 AM 52.6°F11.4°C 44.9°F7.2°C 75% 5.8 mph WSW9.3 kmh WSW 10.4 mph16.7 kmh 30.20 in1022.7 mb - 0.00 in0.0 mm 0.00 in0.0 mm
01:50 AM 52.6°F11.4°C 44.9°F7.2°C 75% 1.2 mph WSW1.9 kmh WSW 6.9 mph11.1 kmh 30.21 in1023.0 mb - 0.00 in0.0 mm 0.00 in0.0 mm
01:40 AM 52.6°F11.4°C 44.9°F7.2°C 75% 4.6 mph WSW7.4 kmh WSW 10.4 mph16.7 kmh 30.21 in1023.0 mb - 0.00 in0.0 mm 0.00 in0.0 mm
01:30 AM 52.6°F11.4°C 44.9°F7.2°C 75% 4.6 mph WSW7.4 kmh WSW 8.1 mph13.0 kmh 30.21 in1023.0 mb - 0.00 in0.0 mm 0.00 in0.0 mm
01:20 AM 52.7°F11.5°C 45.0°F7.2°C 75% 6.9 mph SW11.1 kmh SW 8.1 mph13.0 kmh 30.21 in1023.0 mb - 0.00 in0.0 mm 0.00 in0.0 mm
01:10 AM 52.8°F11.6°C 45.1°F7.3°C 75% 2.3 mph W3.7 kmh W 4.6 mph7.4 kmh 30.21 in1023.0 mb - 0.00 in0.0 mm 0.00 in0.0 mm
01:00 AM 52.8°F11.6°C 45.1°F7.3°C 75% 4.6 mph WSW7.4 kmh WSW 5.8 mph9.3 kmh 30.21 in1023.0 mb - 0.00 in0.0 mm 0.00 in0.0 mm
12:50 AM 53.0°F11.7°C 45.3°F7.4°C 75% 4.6 mph WSW7.4 kmh WSW 9.2 mph14.8 kmh 30.21 in1023.0 mb - 0.00 in0.0 mm 0.00 in0.0 mm
12:40 AM 53.1°F11.7°C 45.4°F7.4°C 75% 5.8 mph WSW9.3 kmh WSW 11.5 mph18.5 kmh 30.21 in1023.0 mb - 0.00 in0.0 mm 0.00 in0.0 mm
12:30 AM 53.2°F11.8°C 45.5°F7.5°C 75% 4.6 mph WSW7.4 kmh WSW 5.8 mph9.3 kmh 30.21 in1023.0 mb - 0.00 in0.0 mm 0.00 in0.0 mm
12:20 AM 53.2°F11.8°C 45.5°F7.5°C 75% 3.5 mph WSW5.6 kmh WSW 9.2 mph14.8 kmh 30.22 in1023.4 mb - 0.00 in0.0 mm 0.00 in0.0 mm
12:10 AM 53.3°F11.8°C 45.6°F7.6°C 75% 2.3 mph WSW3.7 kmh WSW 3.5 mph5.6 kmh 30.23 in1023.7 mb - 0.00 in0.0 mm 0.00 in0.0 mm
12:00 AM 53.3°F11.8°C 45.6°F7.6°C 75% 2.3 mph WSW3.7 kmh WSW 4.6 mph7.4 kmh 30.23 in1023.7 mb - 0.00 in0.0 mm 0.00 in0.0 mm